Time;durP1;ratioP1;P1;durP2;ratioP2;P2;SDS_P1;SDS_P2;PMS_P1;PMS_P2;Temp;Humidity;BMP_temperature;BMP_pressure;BME280_temperature;BME280_humidity;BME280_pressure;Samples;Min_cycle;Max_cycle;Signal;HPM_P1;HPM_P2
2023/03/26 00:02:04;;;;;;;0.93;0.30;;;;;;;10.98;54.89;94480.63;5025572;28;20049;-72
2023/03/26 00:04:32;;;;;;;0.90;0.52;;;;;;;11.12;54.40;94487.56;5026341;28;20206;-71
2023/03/26 00:06:58;;;;;;;0.77;0.50;;;;;;;11.28;53.90;94483.81;5024968;28;20026;-71
2023/03/26 00:09:23;;;;;;;2.05;0.80;;;;;;;11.20;54.26;94494.34;5025107;28;20033;-71
2023/03/26 00:11:49;;;;;;;2.78;0.73;;;;;;;11.35;53.82;94483.53;5025140;28;20472;-72
2023/03/26 00:14:16;;;;;;;0.95;0.57;;;;;;;11.41;53.58;94477.00;5026464;28;20059;-72
2023/03/26 00:16:42;;;;;;;1.33;0.43;;;;;;;11.52;53.25;94476.56;5025854;28;20330;-72
2023/03/26 00:19:08;;;;;;;0.85;0.50;;;;;;;11.64;52.73;94469.41;5025553;28;20495;-72
2023/03/26 00:21:34;;;;;;;0.73;0.50;;;;;;;11.61;52.86;94468.34;5025868;28;20033;-72
2023/03/26 00:24:06;;;;;;;0.50;0.50;;;;;;;11.60;52.83;94466.06;5025189;28;20033;-72
2023/03/26 00:26:32;;;;;;;0.93;0.50;;;;;;;11.28;53.40;94473.56;5026518;28;20030;-72
2023/03/26 00:28:59;;;;;;;0.50;0.47;;;;;;;11.32;53.72;94482.47;5026540;28;20113;-73
2023/03/26 00:31:24;;;;;;;0.65;0.40;;;;;;;11.30;53.78;94457.41;5027441;28;20745;-72
2023/03/26 00:33:53;;;;;;;0.82;0.50;;;;;;;11.14;54.18;94468.63;5025191;28;20021;-72
2023/03/26 00:36:18;;;;;;;0.60;0.30;;;;;;;11.00;54.67;94464.44;5025356;28;20177;-72
2023/03/26 00:38:45;;;;;;;1.42;0.50;;;;;;;10.95;54.77;94470.50;5025620;28;20041;-72
2023/03/26 00:41:25;;;;;;;0.55;0.40;;;;;;;10.84;55.19;94479.19;5024904;28;20072;-72
2023/03/26 00:43:55;;;;;;;0.57;0.35;;;;;;;10.84;55.10;94475.66;5025891;28;20068;-72
2023/03/26 00:46:22;;;;;;;0.90;0.50;;;;;;;10.62;55.52;94470.94;5024563;28;20025;-71
2023/03/26 00:48:47;;;;;;;0.57;0.40;;;;;;;10.56;55.71;94466.47;5025735;28;20037;-72
2023/03/26 00:51:14;;;;;;;0.90;0.50;;;;;;;10.62;55.59;94470.94;5024278;28;20021;-73
2023/03/26 00:53:41;;;;;;;0.70;0.45;;;;;;;10.48;55.80;94463.22;5023606;28;20028;-72
2023/03/26 00:56:07;;;;;;;1.45;0.50;;;;;;;10.39;56.01;94460.41;5023933;28;20073;-72
2023/03/26 00:58:33;;;;;;;2.22;0.57;;;;;;;10.52;55.77;94458.34;5024830;28;20053;-73
2023/03/26 01:01:01;;;;;;;0.43;0.30;;;;;;;10.68;55.19;94460.16;5007789;28;20029;-72
2023/03/26 01:03:32;;;;;;;0.60;0.40;;;;;;;10.80;54.56;94462.03;5022539;28;20043;-73
2023/03/26 01:06:06;;;;;;;0.77;0.50;;;;;;;10.74;54.86;94463.84;5025877;28;20117;-72
2023/03/26 01:08:37;;;;;;;1.08;0.70;;;;;;;10.69;55.27;94467.16;5024490;28;20041;-73
2023/03/26 01:11:12;;;;;;;0.63;0.45;;;;;;;10.74;54.88;94468.56;5023677;28;20036;-73
2023/03/26 01:13:49;;;;;;;0.85;0.60;;;;;;;10.76;54.88;94468.88;5023824;28;20021;-71
2023/03/26 01:16:30;;;;;;;0.85;0.70;;;;;;;10.69;54.90;94469.91;5022681;28;20326;-73
2023/03/26 01:18:57;;;;;;;1.23;0.70;;;;;;;10.81;54.73;94473.81;5024619;28;20116;-71
2023/03/26 01:21:29;;;;;;;0.73;0.60;;;;;;;10.71;55.05;94478.47;5023909;28;20044;-71
2023/03/26 01:24:03;;;;;;;1.58;0.60;;;;;;;10.84;54.46;94483.91;5023622;28;20045;-71
2023/03/26 01:26:36;;;;;;;1.90;0.70;;;;;;;10.78;54.67;94486.47;5024695;28;20488;-71
2023/03/26 01:29:03;;;;;;;0.90;0.55;;;;;;;10.90;54.15;94488.38;5024043;28;20049;-71
2023/03/26 01:31:47;;;;;;;1.08;0.50;;;;;;;10.86;54.35;94497.97;5025476;28;20072;-71
2023/03/26 01:34:32;;;;;;;1.05;0.60;;;;;;;10.73;54.82;94480.78;5022826;28;20116;-72
2023/03/26 01:37:39;;;;;;;1.10;0.45;;;;;;;10.85;54.38;94491.72;5023635;28;20036;-72
2023/03/26 01:40:11;;;;;;;1.58;0.60;;;;;;;10.86;54.71;94485.00;5024761;28;20095;-72
2023/03/26 01:42:50;;;;;;;0.77;0.40;;;;;;;11.03;54.23;94480.03;5022534;28;20482;-72
2023/03/26 01:45:20;;;;;;;0.88;0.68;;;;;;;11.02;54.54;94483.25;5025368;28;20083;-72
2023/03/26 01:47:46;;;;;;;0.85;0.50;;;;;;;11.08;54.18;94495.97;5007204;28;20034;-72
2023/03/26 01:50:12;;;;;;;2.00;0.70;;;;;;;11.15;54.14;94501.19;5022834;28;20029;-72
2023/03/26 01:52:37;;;;;;;1.98;0.70;;;;;;;11.09;54.30;94488.47;5024245;28;20538;-72
2023/03/26 01:55:03;;;;;;;1.15;0.70;;;;;;;11.03;54.76;94487.53;5024783;28;20574;-72
2023/03/26 01:57:43;;;;;;;0.90;0.63;;;;;;;10.98;55.10;94490.88;5028882;28;20478;-73
2023/03/26 02:00:22;;;;;;;1.20;0.50;;;;;;;10.93;55.46;94485.94;5026387;28;20412;-72
2023/03/26 02:03:21;;;;;;;0.60;0.55;;;;;;;10.94;55.35;94496.50;5028610;28;20033;-72
2023/03/26 02:06:10;;;;;;;1.20;0.93;;;;;;;10.79;55.90;94485.25;5028781;28;20029;-72
2023/03/26 02:08:40;;;;;;;1.40;0.90;;;;;;;10.73;55.87;94489.81;5026093;28;20590;-73
2023/03/26 02:11:11;;;;;;;1.35;0.75;;;;;;;10.75;55.92;94492.09;5027478;28;20057;-72
2023/03/26 02:13:38;;;;;;;1.55;0.90;;;;;;;10.86;55.62;94495.22;5026608;28;20032;-72
2023/03/26 02:16:06;;;;;;;3.05;1.25;;;;;;;10.79;55.70;94492.75;5028483;28;20041;-73
2023/03/26 02:18:35;;;;;;;2.85;1.08;;;;;;;10.69;55.98;94496.66;5027198;28;20112;-73
2023/03/26 02:21:19;;;;;;;1.95;0.90;;;;;;;10.69;56.17;94505.66;5027714;28;20496;-73
2023/03/26 02:23:45;;;;;;;;;;;;;;;10.63;56.29;94504.69;5027923;28;20029;-72
2023/03/26 02:26:12;;;;;;;0.73;0.70;;;;;;;10.44;57.03;94498.31;5027296;28;19928;-72
2023/03/26 02:28:37;;;;;;;2.15;0.80;;;;;;;10.47;57.23;94499.38;5027903;28;20029;-72
2023/03/26 02:31:03;;;;;;;1.40;0.90;;;;;;;10.64;56.55;94495.22;5027890;28;20091;-72
2023/03/26 02:33:30;;;;;;;1.52;0.80;;;;;;;10.61;56.73;94502.41;5027126;28;20105;-73
2023/03/26 02:36:00;;;;;;;1.40;1.00;;;;;;;10.70;56.60;94503.66;5028104;28;20502;-72
2023/03/26 02:38:27;;;;;;;0.82;0.73;;;;;;;10.79;56.16;94499.00;5027331;28;20462;-73
2023/03/26 02:40:54;;;;;;;1.23;1.13;;;;;;;10.71;56.41;94502.44;5028305;28;20021;-72
2023/03/26 02:43:20;;;;;;;1.17;0.95;;;;;;;10.63;56.47;94508.22;5027215;28;20029;-72
2023/03/26 02:45:46;;;;;;;1.55;1.05;;;;;;;10.72;56.39;94510.25;5027994;28;20057;-73
2023/03/26 02:48:12;;;;;;;1.55;1.10;;;;;;;10.69;56.52;94521.38;5027750;28;20057;-72
2023/03/26 02:50:38;;;;;;;3.42;2.08;;;;;;;10.83;56.35;94520.84;5027074;28;20080;-72
2023/03/26 02:53:03;;;;;;;1.23;0.90;;;;;;;10.80;56.14;94525.28;5027390;28;20032;-72
2023/03/26 02:55:29;;;;;;;1.83;0.93;;;;;;;10.80;56.19;94532.78;5008943;28;20041;-72
2023/03/26 02:57:55;;;;;;;1.27;0.93;;;;;;;10.64;56.59;94534.47;5027692;28;20029;-73
2023/03/26 03:00:21;;;;;;;1.13;0.80;;;;;;;10.50;56.94;94528.75;5026403;28;20021;-72
2023/03/26 03:02:51;;;;;;;1.20;1.00;;;;;;;10.25;57.25;94524.84;5027996;28;20120;-72
2023/03/26 03:05:17;;;;;;;1.77;0.90;;;;;;;10.27;57.18;94527.94;5026751;28;20026;-73
2023/03/26 03:07:45;;;;;;;1.48;1.17;;;;;;;10.49;56.67;94529.94;5028423;28;20475;-73
2023/03/26 03:10:12;;;;;;;1.45;0.88;;;;;;;10.52;56.13;94535.31;5029101;28;20098;-72
2023/03/26 03:12:41;;;;;;;1.55;1.10;;;;;;;10.44;56.66;94528.53;5026831;28;20033;-73
2023/03/26 03:15:07;;;;;;;1.23;1.02;;;;;;;10.45;56.56;94534.78;5027808;28;20025;-72
2023/03/26 03:17:33;;;;;;;1.52;0.95;;;;;;;10.56;56.30;94546.94;5026264;28;20026;-73
2023/03/26 03:19:58;;;;;;;2.53;1.23;;;;;;;10.42;56.35;94541.16;5027590;28;20411;-73
2023/03/26 03:22:23;;;;;;;2.50;1.42;;;;;;;10.52;56.09;94549.03;5026290;28;20048;-73
2023/03/26 03:24:50;;;;;;;2.05;1.65;;;;;;;10.47;56.15;94552.38;5027292;28;20188;-73
2023/03/26 03:27:19;;;;;;;2.03;1.52;;;;;;;10.26;56.58;94550.34;5026805;28;20136;-73
2023/03/26 03:29:45;;;;;;;2.75;1.70;;;;;;;10.34;56.34;94546.91;5058173;28;20415;-73
2023/03/26 03:32:10;;;;;;;2.58;1.90;;;;;;;10.11;56.82;94547.28;5027189;28;20021;-73
2023/03/26 03:34:37;;;;;;;3.53;1.92;;;;;;;9.95;57.17;94542.69;5026121;28;20025;-73
2023/03/26 03:37:03;;;;;;;3.38;1.80;;;;;;;9.87;57.66;94541.41;5027095;28;20515;-72
2023/03/26 03:39:29;;;;;;;2.65;2.00;;;;;;;9.93;57.58;94539.63;5025795;28;20120;-72
2023/03/26 03:41:54;;;;;;;2.50;1.90;;;;;;;10.03;57.08;94543.22;5026861;28;20104;-73
2023/03/26 03:44:20;;;;;;;2.50;1.90;;;;;;;10.10;57.04;94538.28;5026228;28;20018;-72
2023/03/26 03:46:47;;;;;;;2.38;1.85;;;;;;;10.00;57.25;94544.13;5026519;28;20025;-73
2023/03/26 03:49:13;;;;;;;3.15;1.77;;;;;;;10.14;56.98;94545.63;5026534;28;20036;-72
2023/03/26 03:51:39;;;;;;;2.70;1.77;;;;;;;10.17;56.91;94547.50;5025679;28;20022;-73
2023/03/26 03:54:05;;;;;;;2.13;1.70;;;;;;;10.14;56.97;94551.09;5026896;28;20104;-72
2023/03/26 03:56:30;;;;;;;4.00;2.00;;;;;;;10.20;56.84;94557.56;5025165;28;20049;-73
2023/03/26 03:58:57;;;;;;;3.17;2.13;;;;;;;10.11;57.29;94561.78;5026824;28;20408;-72
2023/03/26 04:01:22;;;;;;;3.22;2.20;;;;;;;9.89;57.80;94554.69;5025498;28;20022;-72
2023/03/26 04:03:48;;;;;;;3.25;2.63;;;;;;;10.02;57.48;94558.16;5026101;28;20033;-72
2023/03/26 04:06:17;;;;;;;3.80;2.78;;;;;;;9.98;57.64;94554.78;5025795;28;20032;-72
2023/03/26 04:08:44;;;;;;;3.53;2.63;;;;;;;9.94;57.65;94560.38;5025503;28;20037;-71
2023/03/26 04:11:10;;;;;;;2.83;2.22;;;;;;;9.93;57.69;94574.56;5025926;28;20531;-71
2023/03/26 04:13:36;;;;;;;3.28;2.60;;;;;;;9.94;57.94;94576.84;5025442;28;20393;-72
2023/03/26 04:16:01;;;;;;;3.42;2.35;;;;;;;10.01;57.54;94582.13;5026567;28;20583;-72
2023/03/26 04:18:29;;;;;;;3.22;2.38;;;;;;;10.14;57.31;94579.34;5024533;28;20033;-72
2023/03/26 04:20:54;;;;;;;3.05;2.72;;;;;;;10.14;57.33;94587.59;5026066;28;20416;-72
2023/03/26 04:23:21;;;;;;;3.88;2.97;;;;;;;10.12;57.63;94598.25;5025699;28;20018;-73
2023/03/26 04:25:52;;;;;;;3.72;2.75;;;;;;;10.17;57.30;94600.44;5025621;28;20026;-71
2023/03/26 04:28:32;;;;;;;3.30;2.95;;;;;;;10.16;57.08;94604.41;5024725;28;20033;-72
2023/03/26 04:31:00;;;;;;;3.28;2.88;;;;;;;10.05;57.56;94607.50;5023134;28;20083;-72
2023/03/26 04:33:30;;;;;;;3.05;2.47;;;;;;;10.02;57.64;94605.63;5025165;28;20599;-72
2023/03/26 04:36:00;;;;;;;3.95;2.80;;;;;;;10.17;57.14;94610.66;5023507;28;20029;-72
2023/03/26 04:38:27;;;;;;;4.18;2.55;;;;;;;10.06;57.49;94609.03;5025724;28;20029;-72
2023/03/26 04:40:53;;;;;;;4.10;2.70;;;;;;;10.01;57.44;94617.03;5024374;28;20095;-72
2023/03/26 04:43:18;;;;;;;3.25;2.95;;;;;;;10.02;57.44;94629.56;5024815;28;20021;-72
2023/03/26 04:45:47;;;;;;;3.88;2.83;;;;;;;9.99;57.13;94633.22;5025903;28;20044;-72
2023/03/26 04:48:13;;;;;;;5.32;3.22;;;;;;;10.06;57.01;94625.50;5024280;28;20021;-71
2023/03/26 04:50:43;;;;;;;3.92;3.50;;;;;;;9.99;56.95;94635.94;5026008;28;20034;-72
2023/03/26 04:53:12;;;;;;;4.20;3.38;;;;;;;10.21;56.23;94638.81;5022861;28;20108;-71
2023/03/26 04:55:58;;;;;;;5.45;3.55;;;;;;;10.15;56.38;94630.34;5023953;28;20057;-73
2023/03/26 04:58:29;;;;;;;4.00;3.28;;;;;;;10.17;55.90;94630.66;5023892;28;20022;-73
2023/03/26 05:00:56;;;;;;;4.18;3.67;;;;;;;10.15;56.22;94637.78;5023478;28;20032;-70
2023/03/26 05:03:21;;;;;;;5.75;4.18;;;;;;;10.18;55.79;94640.44;5025556;28;20033;-71
2023/03/26 05:05:48;;;;;;;6.20;4.13;;;;;;;10.18;55.59;94642.41;5024229;28;20025;-73
2023/03/26 05:08:13;;;;;;;4.70;4.10;;;;;;;10.33;55.23;94643.53;5025369;28;20123;-73
2023/03/26 05:10:39;;;;;;;6.03;4.70;;;;;;;10.38;54.86;94653.97;5024461;28;20407;-72
2023/03/26 05:13:04;;;;;;;6.13;4.60;;;;;;;10.50;54.61;94663.41;5024802;28;20484;-72
2023/03/26 05:15:30;;;;;;;6.28;4.63;;;;;;;10.49;54.25;94639.84;5024992;28;20108;-73
2023/03/26 05:17:55;;;;;;;6.15;4.88;;;;;;;10.53;54.51;94659.75;5024549;28;20034;-73
2023/03/26 05:20:25;;;;;;;6.30;4.80;;;;;;;10.53;54.55;94665.25;5025122;28;20136;-73
2023/03/26 05:22:51;;;;;;;5.78;4.45;;;;;;;10.66;54.52;94662.47;5022689;28;20030;-73
2023/03/26 05:25:17;;;;;;;5.50;4.50;;;;;;;10.66;54.58;94670.72;5025403;28;20108;-72
2023/03/26 05:27:43;;;;;;;6.60;4.97;;;;;;;10.55;55.15;94662.81;5024453;28;20021;-72
2023/03/26 05:30:13;;;;;;;5.10;4.60;;;;;;;10.46;55.67;94673.72;5022676;28;20033;-72
2023/03/26 05:32:38;;;;;;;6.25;5.20;;;;;;;10.54;55.32;94673.03;5023341;28;20037;-72
2023/03/26 05:35:04;;;;;;;6.28;5.05;;;;;;;10.39;56.20;94668.47;5024465;28;20029;-72
2023/03/26 05:37:30;;;;;;;6.60;5.55;;;;;;;10.37;56.00;94666.16;5024947;28;20018;-71
2023/03/26 05:39:57;;;;;;;6.13;5.10;;;;;;;10.44;55.82;94665.16;5023806;28;20048;-72
2023/03/26 05:42:22;;;;;;;5.78;5.18;;;;;;;10.39;55.68;94665.72;5024991;28;20579;-71
2023/03/26 05:44:48;;;;;;;7.70;5.88;;;;;;;10.60;55.15;94674.00;5024949;28;20055;-73
2023/03/26 05:47:14;;;;;;;7.50;5.25;;;;;;;10.58;55.27;94678.44;5026747;28;20095;-72
2023/03/26 05:49:39;;;;;;;7.22;5.43;;;;;;;10.41;55.71;94683.28;5024159;28;20443;-72
2023/03/26 05:52:05;;;;;;;7.60;5.60;;;;;;;10.59;55.28;94682.72;5024404;28;20147;-72
2023/03/26 05:54:30;;;;;;;7.85;6.22;;;;;;;10.58;55.36;94679.19;5024587;28;20083;-72
2023/03/26 05:56:56;;;;;;;7.28;5.68;;;;;;;10.53;55.61;94679.00;5023725;28;20050;-72
2023/03/26 05:59:21;;;;;;;6.57;5.43;;;;;;;10.44;55.59;94673.41;5025034;28;20023;-72
2023/03/26 06:01:47;;;;;;;7.13;5.45;;;;;;;10.49;55.37;94681.84;5023569;28;20113;-72
2023/03/26 06:04:14;;;;;;;6.30;5.30;;;;;;;10.60;54.93;94662.25;5025065;28;20110;-72
2023/03/26 06:06:40;;;;;;;6.45;5.20;;;;;;;10.64;54.54;94673.91;5022390;28;20021;-72
2023/03/26 06:09:06;;;;;;;8.85;5.50;;;;;;;10.41;54.59;94661.31;5024698;28;20462;-72
2023/03/26 06:11:32;;;;;;;7.15;5.60;;;;;;;10.61;54.44;94672.84;5024014;28;20116;-72
2023/03/26 06:13:58;;;;;;;8.20;6.05;;;;;;;10.36;54.77;94670.88;5024026;28;20087;-72
2023/03/26 06:16:23;;;;;;;7.95;6.20;;;;;;;10.50;54.75;94674.41;5024417;28;20060;-72
2023/03/26 06:18:50;;;;;;;8.40;5.90;;;;;;;10.65;54.15;94667.19;5024038;28;20029;-73
2023/03/26 06:21:16;;;;;;;7.40;6.60;;;;;;;10.75;54.15;94674.31;5025145;28;20057;-72
2023/03/26 06:23:42;;;;;;;7.65;6.18;;;;;;;10.88;53.72;94672.28;5023633;28;20022;-72
2023/03/26 06:26:07;;;;;;;6.80;6.13;;;;;;;10.86;53.70;94673.97;5024942;28;20134;-72
2023/03/26 06:28:34;;;;;;;7.25;6.47;;;;;;;10.96;53.35;94680.31;5023554;28;20025;-72
2023/03/26 06:31:00;;;;;;;7.05;6.35;;;;;;;10.99;53.08;94663.69;5024293;28;20030;-72
2023/03/26 06:33:26;;;;;;;7.03;6.18;;;;;;;11.02;52.63;94676.56;5023071;28;20029;-73
2023/03/26 06:35:51;;;;;;;7.82;5.85;;;;;;;10.88;52.75;94669.53;5022294;28;20052;-72
2023/03/26 06:38:16;;;;;;;7.15;5.88;;;;;;;11.08;52.40;94674.00;5024887;28;20022;-72
2023/03/26 06:40:42;;;;;;;7.63;5.65;;;;;;;10.79;52.66;94674.22;5023636;28;20025;-73
2023/03/26 06:43:07;;;;;;;6.55;5.85;;;;;;;11.01;52.59;94666.78;5029034;28;20022;-72
2023/03/26 06:45:33;;;;;;;7.97;6.30;;;;;;;11.17;52.17;94663.06;5025378;28;20034;-73
2023/03/26 06:47:59;;;;;;;6.93;6.00;;;;;;;11.22;51.77;94662.47;5028012;28;20033;-72
2023/03/26 06:50:25;;;;;;;6.63;5.72;;;;;;;11.36;50.87;94684.00;5027225;28;20213;-72
2023/03/26 06:52:53;;;;;;;6.32;5.28;;;;;;;11.25;50.53;94689.13;5026844;28;20040;-72
2023/03/26 06:55:18;;;;;;;7.28;5.45;;;;;;;11.20;50.81;94692.44;5027888;28;20048;-72
2023/03/26 06:57:48;;;;;;;7.65;5.50;;;;;;;11.34;50.34;94685.66;5026633;28;20029;-72
2023/03/26 07:00:13;;;;;;;8.00;5.50;;;;;;;11.50;50.09;94695.72;5028164;28;20100;-72
2023/03/26 07:02:39;;;;;;;5.95;5.35;;;;;;;11.53;49.57;94692.84;5026364;28;20615;-72
2023/03/26 07:05:05;;;;;;;6.32;5.68;;;;;;;11.66;49.43;94690.00;5026403;28;20022;-72
2023/03/26 07:07:31;;;;;;;7.82;6.43;;;;;;;11.55;49.69;94690.41;5026298;28;20045;-72
2023/03/26 07:09:56;;;;;;;6.40;5.50;;;;;;;11.81;49.19;94693.78;5027201;28;20025;-72
2023/03/26 07:12:22;;;;;;;5.80;5.20;;;;;;;11.72;48.79;94682.69;5026982;28;20044;-72
2023/03/26 07:14:47;;;;;;;6.35;5.18;;;;;;;11.68;48.80;94676.53;5026536;28;20041;-73
2023/03/26 07:17:12;;;;;;;6.10;5.10;;;;;;;11.74;48.51;94674.75;5027871;28;20057;-73
2023/03/26 07:19:38;;;;;;;5.78;5.18;;;;;;;11.79;48.10;94676.16;5025770;28;20418;-73
2023/03/26 07:22:04;;;;;;;6.13;4.90;;;;;;;11.83;47.70;94682.34;5027740;28;20025;-72
2023/03/26 07:24:29;;;;;;;6.13;4.68;;;;;;;11.83;47.44;94671.31;5026174;28;20017;-73
2023/03/26 07:27:16;;;;;;;6.22;4.78;;;;;;;12.05;47.49;94671.28;5027389;28;20173;-73
2023/03/26 07:29:51;;;;;;;6.57;5.20;;;;;;;12.15;47.70;94675.59;5026588;28;20057;-73
2023/03/26 07:32:47;;;;;;;9.32;6.22;;;;;;;12.23;47.70;94674.88;5024755;28;20044;-73
2023/03/26 07:35:20;;;;;;;5.78;4.70;;;;;;;12.32;46.62;94674.13;5026106;28;20100;-72
2023/03/26 07:37:52;;;;;;;7.97;5.40;;;;;;;12.37;47.01;94670.00;5024665;28;20025;-72
2023/03/26 07:40:39;;;;;;;6.80;5.68;;;;;;;12.51;46.91;94671.44;5026424;28;20132;-74
2023/03/26 07:43:27;;;;;;;5.80;5.20;;;;;;;12.43;47.00;94668.19;5026818;28;20068;-73
2023/03/26 07:45:53;;;;;;;6.32;5.38;;;;;;;12.48;46.93;94673.09;5024457;28;20052;-74
2023/03/26 07:48:24;;;;;;;6.28;5.20;;;;;;;12.40;46.38;94669.88;5027014;28;20610;-76
2023/03/26 07:50:50;;;;;;;5.18;4.55;;;;;;;12.65;45.99;94679.88;5025534;28;20040;-74
2023/03/26 07:53:15;;;;;;;4.97;4.20;;;;;;;12.81;46.15;94664.28;5023436;28;20025;-76
2023/03/26 07:56:19;;;;;;;5.93;5.05;;;;;;;13.05;45.06;94658.94;5024749;28;20052;-75
2023/03/26 07:59:22;;;;;;;7.53;5.50;;;;;;;13.02;44.37;94655.88;5023710;28;20426;-74
2023/03/26 08:02:12;;;;;;;6.95;4.97;;;;;;;13.39;43.79;94649.59;5026036;28;20056;-74
2023/03/26 08:05:02;;;;;;;5.35;3.88;;;;;;;13.58;42.80;94653.84;5026479;28;20038;-74
2023/03/26 08:08:01;;;;;;;5.63;4.20;;;;;;;13.67;41.65;94651.09;5025067;28;20030;-74
2023/03/26 08:10:57;;;;;;;5.00;3.38;;;;;;;13.94;40.36;94653.03;5024792;28;20021;-74
2023/03/26 08:13:41;;;;;;;6.97;4.43;;;;;;;13.86;40.13;94657.31;5025189;28;20025;-75
2023/03/26 08:16:31;;;;;;;4.47;3.85;;;;;;;13.80;40.17;94659.94;5025138;28;20522;-74
2023/03/26 08:19:32;;;;;;;5.93;4.20;;;;;;;13.85;40.64;94655.78;5024592;28;20029;-75
2023/03/26 08:22:10;;;;;;;4.20;3.40;;;;;;;14.10;39.46;94646.34;5025224;28;20041;-74
2023/03/26 08:24:52;;;;;;;3.55;2.92;;;;;;;14.19;37.73;94664.91;5025097;28;20036;-74
2023/03/26 08:27:53;;;;;;;4.15;3.28;;;;;;;14.16;39.10;94654.75;5025590;28;20112;-75
2023/03/26 08:30:26;;;;;;;4.22;3.33;;;;;;;14.47;38.70;94663.56;5025029;28;20215;-74
2023/03/26 08:32:55;;;;;;;5.35;3.13;;;;;;;14.50;37.70;94661.84;5024860;28;20037;-74
2023/03/26 08:35:20;;;;;;;3.70;2.92;;;;;;;14.59;37.04;94659.06;5026247;28;20077;-74
2023/03/26 08:37:46;;;;;;;3.70;3.08;;;;;;;14.73;37.54;94655.56;5024358;28;20029;-77
2023/03/26 08:40:16;;;;;;;4.25;2.90;;;;;;;15.06;37.69;94658.28;5024769;28;20044;-74
2023/03/26 08:43:15;;;;;;;5.15;2.70;;;;;;;15.36;36.54;94656.34;5025133;28;20108;-74
2023/03/26 08:45:50;;;;;;;3.22;2.92;;;;;;;15.62;35.67;94661.34;5024836;28;20037;-74
2023/03/26 08:49:08;;;;;;;4.15;2.95;;;;;;;15.90;35.46;94651.56;5026067;28;20025;-75
2023/03/26 08:51:48;;;;;;;3.45;2.60;;;;;;;16.27;34.76;94662.22;5022704;28;20384;-75
2023/03/26 08:54:27;;;;;;;3.83;3.08;;;;;;;16.58;33.58;94664.47;5023286;28;20492;-75
2023/03/26 08:57:01;;;;;;;3.40;2.65;;;;;;;16.85;33.24;94670.91;5024049;28;20053;-73
2023/03/26 08:59:58;;;;;;;3.78;2.53;;;;;;;17.17;31.89;94667.03;5024411;28;20021;-73
2023/03/26 09:02:53;;;;;;;6.28;2.85;;;;;;;17.56;31.71;94672.28;5025118;28;20041;-73
2023/03/26 09:05:40;;;;;;;4.47;2.80;;;;;;;17.75;31.45;94661.63;5015097;28;20523;-74
2023/03/26 09:08:11;;;;;;;3.75;2.80;;;;;;;18.17;31.13;94649.09;5022761;28;20120;-74
2023/03/26 09:10:42;;;;;;;2.50;2.17;;;;;;;18.36;30.27;94655.09;5025670;28;20095;-76
2023/03/26 09:13:44;;;;;;;3.78;2.40;;;;;;;18.58;29.75;94650.44;5024753;28;20037;-77
2023/03/26 09:16:36;;;;;;;3.25;2.10;;;;;;;18.88;29.69;94650.13;5006517;28;20029;-75
2023/03/26 09:19:34;;;;;;;3.97;2.10;;;;;;;19.19;28.52;94642.94;5025619;28;20037;-76
2023/03/26 09:22:37;;;;;;;3.70;2.15;;;;;;;19.40;27.89;94640.72;5021976;28;20045;-76
2023/03/26 09:25:49;;;;;;;3.33;2.00;;;;;;;19.61;27.00;94633.69;5020960;28;20049;-77
2023/03/26 09:28:33;;;;;;;3.30;1.90;;;;;;;19.85;26.86;94631.22;5017424;28;20136;-73
2023/03/26 09:31:39;;;;;;;4.22;1.95;;;;;;;20.09;26.94;94636.31;5020159;28;20077;-74
2023/03/26 09:34:25;;;;;;;3.00;1.80;;;;;;;20.06;26.71;94637.31;5001770;28;20029;-75
2023/03/26 09:36:54;;;;;;;2.50;1.60;;;;;;;20.10;26.93;94637.09;5004984;28;20021;-74
2023/03/26 09:39:33;;;;;;;2.78;1.58;;;;;;;20.41;25.73;94622.88;5021798;28;20046;-74
2023/03/26 09:42:20;;;;;;;2.38;1.80;;;;;;;20.54;25.31;94627.19;5020651;28;20052;-73
2023/03/26 09:45:28;;;;;;;2.42;1.65;;;;;;;21.10;24.72;94629.84;5021604;28;20039;-75
2023/03/26 09:48:28;;;;;;;5.05;1.88;;;;;;;21.55;24.50;94632.47;5006772;28;20715;-75
2023/03/26 09:51:15;;;;;;;3.58;1.58;;;;;;;21.95;24.06;94619.75;5021060;28;20478;-73
2023/03/26 09:54:11;;;;;;;3.38;1.70;;;;;;;22.15;23.38;94618.66;5022278;28;20053;-74
2023/03/26 09:56:43;;;;;;;2.45;1.80;;;;;;;22.40;23.38;94623.00;5021901;28;20536;-74
2023/03/26 09:59:11;;;;;;;2.58;1.60;;;;;;;22.65;23.16;94621.00;5023826;28;20076;-74
2023/03/26 10:02:10;;;;;;;2.03;1.42;;;;;;;22.58;22.51;94612.41;5025083;28;20025;-74
2023/03/26 10:05:03;;;;;;;2.53;1.23;;;;;;;23.15;21.43;94602.16;5023683;28;20064;-74
2023/03/26 10:08:00;;;;;;;2.53;1.40;;;;;;;23.55;21.17;94597.56;5023717;28;20195;-73
2023/03/26 10:10:28;;;;;;;3.05;1.90;;;;;;;23.93;20.61;94597.56;5024508;28;20498;-73
2023/03/26 10:13:07;;;;;;;2.15;1.42;;;;;;;24.58;19.79;94588.59;5023383;28;20029;-74
2023/03/26 10:16:02;;;;;;;1.38;1.17;;;;;;;25.10;19.24;94589.94;5023421;28;20057;-74
2023/03/26 10:18:30;;;;;;;2.00;1.40;;;;;;;25.92;18.29;94592.84;5026565;28;20104;-75
2023/03/26 10:21:14;;;;;;;1.70;1.00;;;;;;;26.93;17.51;94581.91;5027463;28;20025;-75
2023/03/26 10:24:21;;;;;;;2.28;1.08;;;;;;;28.04;16.41;94574.34;5010493;28;20034;-75
2023/03/26 10:26:59;;;;;;;2.88;1.80;;;;;;;28.89;15.53;94566.69;5025278;28;20029;-76
2023/03/26 10:29:53;;;;;;;3.63;2.40;;;;;;;29.29;15.14;94561.91;5008310;28;20584;-75
2023/03/26 10:32:32;;;;;;;1.90;1.30;;;;;;;29.25;15.16;94560.81;5018880;28;20110;-75
2023/03/26 10:35:39;;;;;;;2.03;1.23;;;;;;;29.71;14.62;94555.00;5008169;28;20459;-75
2023/03/26 10:38:26;;;;;;;2.33;1.50;;;;;;;30.24;13.87;94566.03;5019397;28;20095;-75
2023/03/26 10:41:09;;;;;;;1.30;1.00;;;;;;;31.09;12.91;94561.19;5025954;28;20057;-79
2023/03/26 10:43:53;;;;;;;2.33;1.40;;;;;;;31.64;12.92;94556.44;5024269;28;20476;-75
2023/03/26 10:46:30;;;;;;;1.58;1.35;;;;;;;31.54;12.38;94556.38;5024787;28;20029;-76
2023/03/26 10:49:15;;;;;;;3.70;1.90;;;;;;;31.99;11.85;94543.69;5024956;28;20048;-78
2023/03/26 10:51:54;;;;;;;1.77;1.20;;;;;;;32.07;11.86;94540.00;5007693;28;20126;-76
2023/03/26 10:54:45;;;;;;;1.60;1.08;;;;;;;32.30;11.33;94537.56;5025276;28;20049;-76
2023/03/26 10:57:18;;;;;;;1.77;0.95;;;;;;;31.66;11.39;94543.16;5006769;28;20053;-76
2023/03/26 10:59:43;;;;;;;1.52;1.00;;;;;;;32.68;10.78;94531.28;5024270;28;20033;-75
2023/03/26 11:02:23;;;;;;;2.05;0.95;;;;;;;32.81;11.19;94524.44;5026376;28;20051;-75
2023/03/26 11:05:13;;;;;;;1.20;0.93;;;;;;;33.02;10.27;94532.44;5026465;28;20033;-75
2023/03/26 11:07:45;;;;;;;2.63;0.93;;;;;;;33.74;9.96;94521.38;5027310;28;20030;-75
2023/03/26 11:10:23;;;;;;;3.67;1.35;;;;;;;33.75;10.13;94534.28;5026021;28;20033;-76
2023/03/26 11:13:06;;;;;;;2.08;1.60;;;;;;;33.61;10.49;94525.44;5025246;28;20554;-76
2023/03/26 11:15:37;;;;;;;1.63;1.05;;;;;;;34.12;9.96;94531.22;5026437;28;20049;-76
2023/03/26 11:18:21;;;;;;;3.72;2.00;;;;;;;34.04;9.66;94520.72;5026741;28;20026;-79
2023/03/26 11:21:03;;;;;;;2.53;1.20;;;;;;;34.18;9.71;94525.94;5026706;28;20566;-77
2023/03/26 11:23:34;;;;;;;3.07;1.13;;;;;;;34.40;9.77;94516.09;5026009;28;20523;-78
2023/03/26 11:26:30;;;;;;;1.93;1.40;;;;;;;34.36;9.42;94506.53;5026144;28;20646;-78
2023/03/26 11:28:59;;;;;;;2.05;1.20;;;;;;;34.58;9.01;94508.09;5027726;28;20124;-77
2023/03/26 11:31:57;;;;;;;1.42;1.00;;;;;;;35.00;9.42;94504.56;5025410;28;20037;-77
2023/03/26 11:34:30;;;;;;;6.13;2.35;;;;;;;34.42;9.37;94506.97;5025915;28;20120;-78
2023/03/26 11:36:56;;;;;;;6.80;3.10;;;;;;;34.45;9.28;94497.94;5026156;28;20452;-77
2023/03/26 11:39:28;;;;;;;5.82;2.95;;;;;;;34.80;9.18;94503.16;5008203;28;20380;-77
2023/03/26 11:42:11;;;;;;;3.63;1.90;;;;;;;35.31;8.67;94500.88;5027411;28;20040;-77
2023/03/26 11:44:37;;;;;;;;;;;;;;;35.30;8.89;94485.09;5026772;28;20029;-78
2023/03/26 11:47:07;;;;;;;3.45;1.67;;;;;;;35.42;8.51;94476.59;5025105;28;19928;-77
2023/03/26 11:49:33;;;;;;;2.60;1.35;;;;;;;34.10;9.50;94468.34;5027032;28;20072;-77
2023/03/26 11:51:59;;;;;;;1.63;1.05;;;;;;;32.43;10.51;94457.56;5025670;28;20512;-78
2023/03/26 11:54:25;;;;;;;1.52;1.10;;;;;;;30.40;11.35;94461.78;5027498;28;20029;-76
2023/03/26 11:56:56;;;;;;;3.03;1.90;;;;;;;28.86;12.02;94444.13;5025205;28;20500;-76
2023/03/26 12:00:06;;;;;;;2.13;0.95;;;;;;;27.95;12.66;94450.63;5025670;28;20040;-75
2023/03/26 12:02:40;;;;;;;2.28;1.05;;;;;;;26.96;13.77;94439.81;5025164;28;20029;-75
2023/03/26 12:05:23;;;;;;;2.58;1.75;;;;;;;26.34;14.69;94429.47;5024482;28;20021;-75